sensor_id;sensor_type;location;lat;lon;timestamp;pressure;altitude;pressure_sealevel;temperature;humidity
67517;BME280;54359;59.124;37.910;2023-02-21T00:01:51;98090.09;;;-14.54;70.38
67517;BME280;54359;59.124;37.910;2023-02-21T00:04:36;98090.91;;;-14.55;71.99
67517;BME280;54359;59.124;37.910;2023-02-21T00:07:21;98088.94;;;-14.60;71.61
67517;BME280;54359;59.124;37.910;2023-02-21T00:10:06;98082.28;;;-14.61;71.20
67517;BME280;54359;59.124;37.910;2023-02-21T00:12:50;98082.19;;;-14.62;71.59
67517;BME280;54359;59.124;37.910;2023-02-21T00:15:35;98081.06;;;-14.66;71.54
67517;BME280;54359;59.124;37.910;2023-02-21T00:18:19;98074.81;;;-14.72;70.96
67517;BME280;54359;59.124;37.910;2023-02-21T00:21:04;98082.09;;;-14.74;71.40
67517;BME280;54359;59.124;37.910;2023-02-21T00:23:49;98077.66;;;-14.78;71.48
67517;BME280;54359;59.124;37.910;2023-02-21T00:26:33;98082.34;;;-14.81;70.58
67517;BME280;54359;59.124;37.910;2023-02-21T00:29:17;98077.44;;;-14.91;71.32
67517;BME280;54359;59.124;37.910;2023-02-21T00:32:01;98066.25;;;-15.08;70.29
67517;BME280;54359;59.124;37.910;2023-02-21T00:34:46;98085.25;;;-15.07;70.63
67517;BME280;54359;59.124;37.910;2023-02-21T00:37:30;98082.81;;;-15.17;70.76
67517;BME280;54359;59.124;37.910;2023-02-21T00:40:15;98082.06;;;-15.27;70.66
67517;BME280;54359;59.124;37.910;2023-02-21T00:43:00;98080.84;;;-15.32;71.48
67517;BME280;54359;59.124;37.910;2023-02-21T00:45:45;98081.09;;;-15.39;70.96
67517;BME280;54359;59.124;37.910;2023-02-21T00:48:29;98078.75;;;-15.48;70.87
67517;BME280;54359;59.124;37.910;2023-02-21T00:51:16;98074.81;;;-15.56;70.65
67517;BME280;54359;59.124;37.910;2023-02-21T00:54:01;98072.72;;;-15.62;70.96
67517;BME280;54359;59.124;37.910;2023-02-21T00:56:46;98059.69;;;-15.71;70.54
67517;BME280;54359;59.124;37.910;2023-02-21T00:59:30;98070.75;;;-15.66;70.89
67517;BME280;54359;59.124;37.910;2023-02-21T01:02:14;98071.50;;;-15.67;71.37
67517;BME280;54359;59.124;37.910;2023-02-21T01:04:58;98072.63;;;-15.73;70.95
67517;BME280;54359;59.124;37.910;2023-02-21T01:07:43;98078.78;;;-15.78;70.82
67517;BME280;54359;59.124;37.910;2023-02-21T01:10:27;98083.94;;;-15.86;70.88
67517;BME280;54359;59.124;37.910;2023-02-21T01:13:11;98069.41;;;-15.93;70.82
67517;BME280;54359;59.124;37.910;2023-02-21T01:15:56;98072.88;;;-15.91;71.52
67517;BME280;54359;59.124;37.910;2023-02-21T01:18:40;98068.16;;;-15.98;70.68
67517;BME280;54359;59.124;37.910;2023-02-21T01:21:24;98073.09;;;-15.98;70.93
67517;BME280;54359;59.124;37.910;2023-02-21T01:24:13;98079.59;;;-15.98;71.13
67517;BME280;54359;59.124;37.910;2023-02-21T01:26:57;98076.78;;;-16.03;71.23
67517;BME280;54359;59.124;37.910;2023-02-21T01:29:41;98083.41;;;-16.02;71.10
67517;BME280;54359;59.124;37.910;2023-02-21T01:32:26;98079.59;;;-16.09;71.01
67517;BME280;54359;59.124;37.910;2023-02-21T01:35:11;98083.53;;;-16.11;70.98
67517;BME280;54359;59.124;37.910;2023-02-21T01:37:55;98086.34;;;-16.16;70.87
67517;BME280;54359;59.124;37.910;2023-02-21T01:40:39;98085.09;;;-16.22;70.54
67517;BME280;54359;59.124;37.910;2023-02-21T01:43:26;98084.72;;;-16.26;70.91
67517;BME280;54359;59.124;37.910;2023-02-21T01:46:15;98095.03;;;-16.30;70.92
67517;BME280;54359;59.124;37.910;2023-02-21T01:49:08;98083.81;;;-16.37;71.10
67517;BME280;54359;59.124;37.910;2023-02-21T01:51:53;98090.94;;;-16.40;70.93
67517;BME280;54359;59.124;37.910;2023-02-21T01:54:42;98092.91;;;-16.46;71.30
67517;BME280;54359;59.124;37.910;2023-02-21T01:57:29;98085.47;;;-16.56;71.38
67517;BME280;54359;59.124;37.910;2023-02-21T02:00:15;98101.38;;;-16.53;71.04
67517;BME280;54359;59.124;37.910;2023-02-21T02:03:03;98086.81;;;-16.60;70.73
67517;BME280;54359;59.124;37.910;2023-02-21T02:06:08;98096.16;;;-16.56;70.91
67517;BME280;54359;59.124;37.910;2023-02-21T02:08:52;98096.03;;;-16.57;71.20
67517;BME280;54359;59.124;37.910;2023-02-21T02:44:46;98092.63;;;-16.78;71.60
67517;BME280;54359;59.124;37.910;2023-02-21T02:47:22;98102.47;;;-16.78;70.87
67517;BME280;54359;59.124;37.910;2023-02-21T02:49:50;98093.13;;;-16.83;70.99
67517;BME280;54359;59.124;37.910;2023-02-21T02:52:16;98095.44;;;-16.84;70.93
67517;BME280;54359;59.124;37.910;2023-02-21T02:54:42;98090.00;;;-16.90;71.43
67517;BME280;54359;59.124;37.910;2023-02-21T02:57:09;98094.06;;;-16.91;71.03
67517;BME280;54359;59.124;37.910;2023-02-21T02:59:41;98106.50;;;-16.89;71.47
67517;BME280;54359;59.124;37.910;2023-02-21T03:19:13;98098.00;;;-17.12;70.43
67517;BME280;54359;59.124;37.910;2023-02-21T03:21:47;98110.16;;;-17.13;71.72
67517;BME280;54359;59.124;37.910;2023-02-21T03:24:15;98106.44;;;-17.18;70.76
67517;BME280;54359;59.124;37.910;2023-02-21T03:26:46;98106.56;;;-17.17;71.51
67517;BME280;54359;59.124;37.910;2023-02-21T03:29:45;98094.34;;;-17.26;70.76
67517;BME280;54359;59.124;37.910;2023-02-21T03:32:19;98094.22;;;-17.27;70.82
67517;BME280;54359;59.124;37.910;2023-02-21T03:34:48;98093.09;;;-17.31;70.92
67517;BME280;54359;59.124;37.910;2023-02-21T03:37:29;98087.19;;;-17.33;70.83
67517;BME280;54359;59.124;37.910;2023-02-21T03:39:56;98101.47;;;-17.29;70.89
67517;BME280;54359;59.124;37.910;2023-02-21T03:42:22;98098.13;;;-17.29;71.20
67517;BME280;54359;59.124;37.910;2023-02-21T03:44:48;98100.72;;;-17.28;71.89
67517;BME280;54359;59.124;37.910;2023-02-21T03:47:15;98082.88;;;-17.35;71.04
67517;BME280;54359;59.124;37.910;2023-02-21T03:49:41;98103.19;;;-17.28;70.87
67517;BME280;54359;59.124;37.910;2023-02-21T03:52:12;98106.09;;;-17.32;70.68
67517;BME280;54359;59.124;37.910;2023-02-21T03:54:39;98109.69;;;-17.28;71.62
67517;BME280;54359;59.124;37.910;2023-02-21T03:57:06;98113.75;;;-17.29;71.67
67517;BME280;54359;59.124;37.910;2023-02-21T03:59:38;98089.69;;;-17.41;71.22
67517;BME280;54359;59.124;37.910;2023-02-21T04:02:04;98109.88;;;-17.35;70.98
67517;BME280;54359;59.124;37.910;2023-02-21T04:04:33;98111.22;;;-17.39;71.25
67517;BME280;54359;59.124;37.910;2023-02-21T04:07:05;98104.41;;;-17.41;70.56
67517;BME280;54359;59.124;37.910;2023-02-21T04:09:32;98104.47;;;-17.50;70.70
67517;BME280;54359;59.124;37.910;2023-02-21T04:11:57;98114.59;;;-17.47;71.42
67517;BME280;54359;59.124;37.910;2023-02-21T04:14:24;98101.63;;;-17.55;71.24
67517;BME280;54359;59.124;37.910;2023-02-21T04:16:50;98111.00;;;-17.51;71.07
67517;BME280;54359;59.124;37.910;2023-02-21T04:19:16;98112.84;;;-17.48;71.25
67517;BME280;54359;59.124;37.910;2023-02-21T04:21:42;98103.94;;;-17.56;71.62
67517;BME280;54359;59.124;37.910;2023-02-21T04:24:10;98099.63;;;-17.59;70.89
67517;BME280;54359;59.124;37.910;2023-02-21T04:26:36;98108.78;;;-17.48;71.70
67517;BME280;54359;59.124;37.910;2023-02-21T04:29:03;98112.13;;;-17.47;71.05
67517;BME280;54359;59.124;37.910;2023-02-21T04:31:29;98118.16;;;-17.44;72.04
67517;BME280;54359;59.124;37.910;2023-02-21T04:34:01;98111.38;;;-17.46;71.28
67517;BME280;54359;59.124;37.910;2023-02-21T04:36:27;98101.31;;;-17.49;71.01
67517;BME280;54359;59.124;37.910;2023-02-21T04:38:54;98105.78;;;-17.45;72.04
67517;BME280;54359;59.124;37.910;2023-02-21T04:41:23;98112.69;;;-17.41;71.60
67517;BME280;54359;59.124;37.910;2023-02-21T04:43:50;98114.84;;;-17.44;70.90
67517;BME280;54359;59.124;37.910;2023-02-21T04:46:17;98115.69;;;-17.44;71.62
67517;BME280;54359;59.124;37.910;2023-02-21T04:48:44;98110.25;;;-17.50;71.12
67517;BME280;54359;59.124;37.910;2023-02-21T04:51:11;98124.94;;;-17.41;71.46
67517;BME280;54359;59.124;37.910;2023-02-21T04:53:38;98112.84;;;-17.48;71.07
67517;BME280;54359;59.124;37.910;2023-02-21T04:56:04;98116.16;;;-17.48;71.37
67517;BME280;54359;59.124;37.910;2023-02-21T04:58:30;98124.94;;;-17.41;71.22
67517;BME280;54359;59.124;37.910;2023-02-21T05:00:56;98115.59;;;-17.45;71.65
67517;BME280;54359;59.124;37.910;2023-02-21T05:03:21;98110.69;;;-17.45;71.04
67517;BME280;54359;59.124;37.910;2023-02-21T05:05:49;98114.69;;;-17.46;71.06
67517;BME280;54359;59.124;37.910;2023-02-21T05:08:15;98115.44;;;-17.47;71.24
67517;BME280;54359;59.124;37.910;2023-02-21T05:10:40;98123.19;;;-17.42;71.58
67517;BME280;54359;59.124;37.910;2023-02-21T05:13:06;98123.34;;;-17.40;71.20
67517;BME280;54359;59.124;37.910;2023-02-21T05:15:32;98109.78;;;-17.46;71.68
67517;BME280;54359;59.124;37.910;2023-02-21T05:17:58;98123.66;;;-17.46;71.56
67517;BME280;54359;59.124;37.910;2023-02-21T05:20:23;98128.84;;;-17.43;71.09
67517;BME280;54359;59.124;37.910;2023-02-21T05:22:49;98139.25;;;-17.46;70.69
67517;BME280;54359;59.124;37.910;2023-02-21T05:25:16;98138.25;;;-17.48;71.68
67517;BME280;54359;59.124;37.910;2023-02-21T05:27:44;98138.25;;;-17.48;70.89
67517;BME280;54359;59.124;37.910;2023-02-21T05:30:10;98145.75;;;-17.46;70.99
67517;BME280;54359;59.124;37.910;2023-02-21T05:32:38;98146.28;;;-17.40;72.32
67517;BME280;54359;59.124;37.910;2023-02-21T05:35:04;98141.91;;;-17.34;72.07
67517;BME280;54359;59.124;37.910;2023-02-21T05:37:30;98148.81;;;-17.30;71.77
67517;BME280;54359;59.124;37.910;2023-02-21T05:39:56;98137.56;;;-17.28;71.48
67517;BME280;54359;59.124;37.910;2023-02-21T05:42:21;98148.06;;;-17.20;71.41
67517;BME280;54359;59.124;37.910;2023-02-21T05:44:47;98148.91;;;-17.19;71.83
67517;BME280;54359;59.124;37.910;2023-02-21T05:47:13;98149.31;;;-17.15;71.01
67517;BME280;54359;59.124;37.910;2023-02-21T05:49:40;98148.44;;;-17.15;72.06
67517;BME280;54359;59.124;37.910;2023-02-21T05:52:07;98134.50;;;-17.25;71.41
67517;BME280;54359;59.124;37.910;2023-02-21T05:54:33;98147.44;;;-17.17;71.69
67517;BME280;54359;59.124;37.910;2023-02-21T05:56:59;98155.63;;;-17.08;71.86
67517;BME280;54359;59.124;37.910;2023-02-21T05:59:25;98147.81;;;-17.04;71.54
67517;BME280;54359;59.124;37.910;2023-02-21T06:01:51;98154.25;;;-16.96;71.27
67517;BME280;54359;59.124;37.910;2023-02-21T06:04:17;98151.72;;;-16.87;71.54
67517;BME280;54359;59.124;37.910;2023-02-21T06:06:43;98124.81;;;-16.86;72.06
67517;BME280;54359;59.124;37.910;2023-02-21T06:09:10;98147.75;;;-16.66;71.51
67517;BME280;54359;59.124;37.910;2023-02-21T06:11:37;98147.41;;;-16.60;71.94
67517;BME280;54359;59.124;37.910;2023-02-21T06:14:07;98139.03;;;-16.63;71.75
67517;BME280;54359;59.124;37.910;2023-02-21T06:16:35;98148.66;;;-16.55;71.75
67517;BME280;54359;59.124;37.910;2023-02-21T06:19:05;98141.06;;;-16.48;71.57
67517;BME280;54359;59.124;37.910;2023-02-21T06:21:33;98144.53;;;-16.46;71.49
67517;BME280;54359;59.124;37.910;2023-02-21T06:24:01;98147.75;;;-16.37;71.57
67517;BME280;54359;59.124;37.910;2023-02-21T06:26:27;98147.69;;;-16.28;71.69
67517;BME280;54359;59.124;37.910;2023-02-21T06:28:53;98144.50;;;-16.17;72.03
67517;BME280;54359;59.124;37.910;2023-02-21T06:31:20;98153.53;;;-16.07;71.68
67517;BME280;54359;59.124;37.910;2023-02-21T06:33:47;98151.72;;;-15.99;71.75
67517;BME280;54359;59.124;37.910;2023-02-21T06:36:25;98145.69;;;-15.93;71.63
67517;BME280;54359;59.124;37.910;2023-02-21T06:38:53;98145.44;;;-15.86;71.96
67517;BME280;54359;59.124;37.910;2023-02-21T06:41:24;98145.09;;;-15.80;71.36
67517;BME280;54359;59.124;37.910;2023-02-21T06:43:51;98151.88;;;-15.77;71.57
67517;BME280;54359;59.124;37.910;2023-02-21T06:46:19;98135.59;;;-15.86;71.61
67517;BME280;54359;59.124;37.910;2023-02-21T06:48:50;98146.84;;;-15.79;71.19
67517;BME280;54359;59.124;37.910;2023-02-21T06:51:16;98156.78;;;-15.77;71.55
67517;BME280;54359;59.124;37.910;2023-02-21T06:53:43;98161.13;;;-15.75;71.53
67517;BME280;54359;59.124;37.910;2023-02-21T06:56:10;98163.19;;;-15.69;71.64
67517;BME280;54359;59.124;37.910;2023-02-21T06:58:36;98143.47;;;-15.69;72.00
67517;BME280;54359;59.124;37.910;2023-02-21T07:01:02;98154.47;;;-15.55;71.91
67517;BME280;54359;59.124;37.910;2023-02-21T07:03:28;98164.81;;;-15.39;72.41
67517;BME280;54359;59.124;37.910;2023-02-21T07:05:54;98163.72;;;-15.32;71.44
67517;BME280;54359;59.124;37.910;2023-02-21T07:08:21;98166.94;;;-15.23;71.50
67517;BME280;54359;59.124;37.910;2023-02-21T07:10:47;98159.03;;;-15.19;71.66
67517;BME280;54359;59.124;37.910;2023-02-21T07:13:15;98161.63;;;-15.17;70.99
67517;BME280;54359;59.124;37.910;2023-02-21T07:15:40;98175.66;;;-15.06;71.94
67517;BME280;54359;59.124;37.910;2023-02-21T07:18:06;98172.56;;;-14.93;71.57
67517;BME280;54359;59.124;37.910;2023-02-21T07:20:32;98163.59;;;-14.93;71.91
67517;BME280;54359;59.124;37.910;2023-02-21T07:23:01;98180.59;;;-14.86;71.60
67517;BME280;54359;59.124;37.910;2023-02-21T07:25:26;98157.78;;;-14.93;71.34
67517;BME280;54359;59.124;37.910;2023-02-21T07:28:02;98174.69;;;-14.98;71.18
67517;BME280;54359;59.124;37.910;2023-02-21T07:30:28;98159.19;;;-15.07;71.83
67517;BME280;54359;59.124;37.910;2023-02-21T07:32:57;98176.03;;;-15.02;71.08
67517;BME280;54359;59.124;37.910;2023-02-21T07:35:23;98163.47;;;-15.05;72.04
67517;BME280;54359;59.124;37.910;2023-02-21T07:37:49;98162.84;;;-14.92;71.61
67517;BME280;54359;59.124;37.910;2023-02-21T07:40:14;98163.31;;;-14.86;72.18
67517;BME280;54359;59.124;37.910;2023-02-21T07:42:43;98159.72;;;-14.79;71.90
67517;BME280;54359;59.124;37.910;2023-02-21T07:45:10;98172.81;;;-14.70;71.66
67517;BME280;54359;59.124;37.910;2023-02-21T07:47:36;98176.88;;;-14.60;71.22
67517;BME280;54359;59.124;37.910;2023-02-21T07:50:02;98167.97;;;-14.58;71.80
67517;BME280;54359;59.124;37.910;2023-02-21T07:52:28;98169.81;;;-14.55;72.60
67517;BME280;54359;59.124;37.910;2023-02-21T07:54:55;98164.56;;;-14.48;70.93
67517;BME280;54359;59.124;37.910;2023-02-21T07:57:22;98161.84;;;-14.41;71.56
67517;BME280;54359;59.124;37.910;2023-02-21T07:59:48;98152.41;;;-14.25;71.86
67517;BME280;54359;59.124;37.910;2023-02-21T08:02:14;98162.59;;;-14.10;71.41
67517;BME280;54359;59.124;37.910;2023-02-21T08:04:40;98164.75;;;-13.92;71.29
67517;BME280;54359;59.124;37.910;2023-02-21T08:07:07;98164.06;;;-13.80;72.04
67517;BME280;54359;59.124;37.910;2023-02-21T08:09:34;98165.97;;;-13.65;71.63
67517;BME280;54359;59.124;37.910;2023-02-21T08:12:03;98152.97;;;-13.63;71.90
67517;BME280;54359;59.124;37.910;2023-02-21T08:14:29;98160.84;;;-13.57;71.50
67517;BME280;54359;59.124;37.910;2023-02-21T08:16:55;98170.44;;;-13.49;71.00
67517;BME280;54359;59.124;37.910;2023-02-21T08:19:21;98171.75;;;-13.43;71.71
67517;BME280;54359;59.124;37.910;2023-02-21T08:21:48;98169.84;;;-13.35;71.73
67517;BME280;54359;59.124;37.910;2023-02-21T08:24:15;98168.00;;;-13.26;72.18
67517;BME280;54359;59.124;37.910;2023-02-21T08:26:41;98146.84;;;-13.22;72.22
67517;BME280;54359;59.124;37.910;2023-02-21T08:29:11;98169.25;;;-12.97;72.45
67517;BME280;54359;59.124;37.910;2023-02-21T08:31:40;98171.22;;;-12.93;71.62
67517;BME280;54359;59.124;37.910;2023-02-21T08:34:11;98144.00;;;-12.93;72.01
67517;BME280;54359;59.124;37.910;2023-02-21T08:36:40;98164.38;;;-12.73;71.68
67517;BME280;54359;59.124;37.910;2023-02-21T08:39:07;98158.25;;;-12.55;72.57
67517;BME280;54359;59.124;37.910;2023-02-21T08:41:38;98158.34;;;-12.42;72.15
67517;BME280;54359;59.124;37.910;2023-02-21T08:44:05;98140.16;;;-12.42;72.48
67517;BME280;54359;59.124;37.910;2023-02-21T08:46:32;98144.88;;;-12.33;71.55
67517;BME280;54359;59.124;37.910;2023-02-21T08:48:59;98175.00;;;-12.16;71.92
67517;BME280;54359;59.124;37.910;2023-02-21T08:51:30;98173.50;;;-12.13;71.99
67517;BME280;54359;59.124;37.910;2023-02-21T08:54:00;98173.81;;;-12.09;71.41
67517;BME280;54359;59.124;37.910;2023-02-21T08:56:28;98174.25;;;-12.03;72.11
67517;BME280;54359;59.124;37.910;2023-02-21T08:58:59;98167.53;;;-11.92;71.77
67517;BME280;54359;59.124;37.910;2023-02-21T09:01:33;98166.50;;;-11.70;71.90
67517;BME280;54359;59.124;37.910;2023-02-21T09:04:20;98178.44;;;-11.65;71.26
67517;BME280;54359;59.124;37.910;2023-02-21T09:06:46;98129.59;;;-11.79;71.09
67517;BME280;54359;59.124;37.910;2023-02-21T09:09:13;98170.25;;;-11.64;70.91
67517;BME280;54359;59.124;37.910;2023-02-21T09:11:41;98123.19;;;-12.01;71.78
67517;BME280;54359;59.124;37.910;2023-02-21T09:14:11;98177.69;;;-11.64;70.95
67517;BME280;54359;59.124;37.910;2023-02-21T09:16:41;98179.19;;;-11.66;71.82
67517;BME280;54359;59.124;37.910;2023-02-21T09:19:09;98155.50;;;-11.74;71.95
67517;BME280;54359;59.124;37.910;2023-02-21T09:21:35;98186.28;;;-11.59;71.15
67517;BME280;54359;59.124;37.910;2023-02-21T09:24:01;98178.94;;;-11.57;71.37
67517;BME280;54359;59.124;37.910;2023-02-21T09:26:28;98159.88;;;-11.58;71.62
67517;BME280;54359;59.124;37.910;2023-02-21T09:28:59;98183.56;;;-11.50;71.81
67517;BME280;54359;59.124;37.910;2023-02-21T09:31:28;98168.88;;;-11.47;71.85
67517;BME280;54359;59.124;37.910;2023-02-21T09:33:54;98188.22;;;-11.29;72.08
67517;BME280;54359;59.124;37.910;2023-02-21T09:36:20;98185.72;;;-11.18;71.96
67517;BME280;54359;59.124;37.910;2023-02-21T09:38:52;98177.31;;;-11.20;71.74
67517;BME280;54359;59.124;37.910;2023-02-21T09:41:19;98172.91;;;-11.24;70.87
67517;BME280;54359;59.124;37.910;2023-02-21T09:43:50;98192.59;;;-11.14;72.02
67517;BME280;54359;59.124;37.910;2023-02-21T09:46:37;98191.16;;;-11.10;72.06
67517;BME280;54359;59.124;37.910;2023-02-21T09:49:11;98174.75;;;-11.08;71.73
67517;BME280;54359;59.124;37.910;2023-02-21T09:51:40;98188.91;;;-10.94;71.56
67517;BME280;54359;59.124;37.910;2023-02-21T09:54:38;98165.72;;;-11.07;71.17
67517;BME280;54359;59.124;37.910;2023-02-21T09:57:11;98184.22;;;-11.02;70.33
67517;BME280;54359;59.124;37.910;2023-02-21T09:59:40;98192.63;;;-11.00;70.30
67517;BME280;54359;59.124;37.910;2023-02-21T10:05:47;98207.97;;;-10.81;71.28
67517;BME280;54359;59.124;37.910;2023-02-21T10:14:29;98203.22;;;-10.64;70.24
67517;BME280;54359;59.124;37.910;2023-02-21T10:19:58;98164.16;;;-10.80;69.53
67517;BME280;54359;59.124;37.910;2023-02-21T10:22:28;98163.38;;;-10.79;69.99
67517;BME280;54359;59.124;37.910;2023-02-21T10:24:57;98150.22;;;-10.65;70.78
67517;BME280;54359;59.124;37.910;2023-02-21T10:27:30;98176.97;;;-10.34;71.56
67517;BME280;54359;59.124;37.910;2023-02-21T10:30:06;98181.44;;;-10.15;70.45
67517;BME280;54359;59.124;37.910;2023-02-21T10:33:13;98166.44;;;-10.17;70.18
67517;BME280;54359;59.124;37.910;2023-02-21T10:35:43;98175.81;;;-10.13;70.76
67517;BME280;54359;59.124;37.910;2023-02-21T10:38:22;98208.72;;;-9.75;71.52
67517;BME280;54359;59.124;37.910;2023-02-21T10:40:53;98201.16;;;-9.63;70.85
67517;BME280;54359;59.124;37.910;2023-02-21T10:46:27;98209.13;;;-9.41;70.23
67517;BME280;54359;59.124;37.910;2023-02-21T10:49:20;98206.06;;;-9.37;70.97
67517;BME280;54359;59.124;37.910;2023-02-21T10:54:28;98192.47;;;-9.42;71.03
67517;BME280;54359;59.124;37.910;2023-02-21T10:56:55;98215.69;;;-9.28;70.64
67517;BME280;54359;59.124;37.910;2023-02-21T10:59:35;98183.09;;;-9.33;70.98
67517;BME280;54359;59.124;37.910;2023-02-21T11:02:33;98218.91;;;-8.73;71.96
67517;BME280;54359;59.124;37.910;2023-02-21T11:05:26;98218.53;;;-8.34;71.24
67517;BME280;54359;59.124;37.910;2023-02-21T11:08:07;98216.94;;;-8.02;70.90
67517;BME280;54359;59.124;37.910;2023-02-21T11:10:37;98218.97;;;-7.80;71.20
67517;BME280;54359;59.124;37.910;2023-02-21T11:13:19;98213.97;;;-7.49;70.96
67517;BME280;54359;59.124;37.910;2023-02-21T11:15:46;98218.94;;;-7.01;71.45
67517;BME280;54359;59.124;37.910;2023-02-21T11:18:23;98218.50;;;-6.60;70.97
67517;BME280;54359;59.124;37.910;2023-02-21T11:20:52;98222.91;;;-6.38;70.70
67517;BME280;54359;59.124;37.910;2023-02-21T11:23:22;98213.41;;;-6.27;70.06
67517;BME280;54359;59.124;37.910;2023-02-21T11:25:58;98213.28;;;-6.12;70.87
67517;BME280;54359;59.124;37.910;2023-02-21T11:28:27;98201.22;;;-6.03;70.63
67517;BME280;54359;59.124;37.910;2023-02-21T11:31:15;98212.81;;;-5.68;70.78
67517;BME280;54359;59.124;37.910;2023-02-21T11:33:49;98222.84;;;-5.48;70.81
67517;BME280;54359;59.124;37.910;2023-02-21T11:36:32;98230.72;;;-5.40;70.96
67517;BME280;54359;59.124;37.910;2023-02-21T11:41:50;98221.03;;;-5.33;69.96
67517;BME280;54359;59.124;37.910;2023-02-21T11:44:32;98223.91;;;-5.25;70.36
67517;BME280;54359;59.124;37.910;2023-02-21T11:50:36;98223.56;;;-4.94;69.96
67517;BME280;54359;59.124;37.910;2023-02-21T11:53:17;98195.19;;;-4.93;69.97
67517;BME280;54359;59.124;37.910;2023-02-21T11:56:06;98207.84;;;-4.70;70.10
67517;BME280;54359;59.124;37.910;2023-02-21T12:17:28;98237.81;;;-3.91;69.78
67517;BME280;54359;59.124;37.910;2023-02-21T12:23:51;98240.13;;;-3.95;69.64
67517;BME280;54359;59.124;37.910;2023-02-21T12:40:12;98268.59;;;-3.95;69.67
67517;BME280;54359;59.124;37.910;2023-02-21T12:46:01;98271.59;;;-4.03;68.80
67517;BME280;54359;59.124;37.910;2023-02-21T12:49:00;98280.31;;;-4.36;68.31
67517;BME280;54359;59.124;37.910;2023-02-21T12:51:38;98264.84;;;-4.86;68.24
67517;BME280;54359;59.124;37.910;2023-02-21T12:54:14;98268.91;;;-5.07;68.75
67517;BME280;54359;59.124;37.910;2023-02-21T12:57:18;98289.56;;;-5.13;69.03
67517;BME280;54359;59.124;37.910;2023-02-21T12:59:58;98285.88;;;-5.01;69.12
67517;BME280;54359;59.124;37.910;2023-02-21T13:05:57;98294.19;;;-5.02;68.41
67517;BME280;54359;59.124;37.910;2023-02-21T13:08:33;98300.50;;;-5.11;68.83
67517;BME280;54359;59.124;37.910;2023-02-21T13:11:16;98303.81;;;-5.30;68.41
67517;BME280;54359;59.124;37.910;2023-02-21T13:13:44;98304.13;;;-5.41;68.75
67517;BME280;54359;59.124;37.910;2023-02-21T13:16:11;98291.09;;;-5.52;68.33
67517;BME280;54359;59.124;37.910;2023-02-21T13:18:45;98292.25;;;-5.63;68.58
67517;BME280;54359;59.124;37.910;2023-02-21T13:29:39;98297.25;;;-6.34;68.48
67517;BME280;54359;59.124;37.910;2023-02-21T13:32:12;98311.19;;;-6.55;67.96
67517;BME280;54359;59.124;37.910;2023-02-21T13:34:53;98322.16;;;-7.01;68.25
67517;BME280;54359;59.124;37.910;2023-02-21T13:37:27;98331.00;;;-7.54;67.65
67517;BME280;54359;59.124;37.910;2023-02-21T13:39:59;98327.94;;;-7.94;67.41
67517;BME280;54359;59.124;37.910;2023-02-21T13:42:36;98333.19;;;-8.49;67.17
67517;BME280;54359;59.124;37.910;2023-02-21T13:45:32;98326.59;;;-9.18;67.48
67517;BME280;54359;59.124;37.910;2023-02-21T13:53:15;98366.47;;;-9.97;67.27
67517;BME280;54359;59.124;37.910;2023-02-21T13:58:42;98366.84;;;-10.29;69.08
67517;BME280;54359;59.124;37.910;2023-02-21T14:01:39;98369.88;;;-10.46;68.67
67517;BME280;54359;59.124;37.910;2023-02-21T14:05:00;98371.66;;;-10.57;68.36
67517;BME280;54359;59.124;37.910;2023-02-21T14:07:41;98365.75;;;-10.71;67.38
67517;BME280;54359;59.124;37.910;2023-02-21T14:10:31;98374.31;;;-10.79;67.26
67517;BME280;54359;59.124;37.910;2023-02-21T14:13:02;98367.59;;;-11.05;66.92
67517;BME280;54359;59.124;37.910;2023-02-21T14:15:39;98381.19;;;-11.12;67.31
67517;BME280;54359;59.124;37.910;2023-02-21T14:21:00;98351.25;;;-11.62;67.20
67517;BME280;54359;59.124;37.910;2023-02-21T14:23:49;98385.53;;;-11.57;67.67
67517;BME280;54359;59.124;37.910;2023-02-21T14:26:49;98410.09;;;-11.60;67.28
67517;BME280;54359;59.124;37.910;2023-02-21T14:39:55;98400.34;;;-12.16;67.79
67517;BME280;54359;59.124;37.910;2023-02-21T14:42:45;98418.66;;;-12.13;68.12
67517;BME280;54359;59.124;37.910;2023-02-21T14:45:22;98438.34;;;-12.15;68.03
67517;BME280;54359;59.124;37.910;2023-02-21T14:59:17;98455.47;;;-12.40;68.05
67517;BME280;54359;59.124;37.910;2023-02-21T15:13:03;98475.38;;;-12.61;68.41
67517;BME280;54359;59.124;37.910;2023-02-21T15:15:33;98474.66;;;-12.70;68.40
67517;BME280;54359;59.124;37.910;2023-02-21T15:18:40;98486.19;;;-12.70;67.77
67517;BME280;54359;59.124;37.910;2023-02-21T15:23:40;98467.31;;;-12.90;67.80
67517;BME280;54359;59.124;37.910;2023-02-21T15:26:26;98486.38;;;-12.89;68.22
67517;BME280;54359;59.124;37.910;2023-02-21T15:29:13;98489.38;;;-12.93;68.50
67517;BME280;54359;59.124;37.910;2023-02-21T15:31:52;98494.06;;;-12.97;68.54
67517;BME280;54359;59.124;37.910;2023-02-21T15:34:22;98497.91;;;-13.00;67.91
67517;BME280;54359;59.124;37.910;2023-02-21T15:39:39;98487.94;;;-13.12;68.24
67517;BME280;54359;59.124;37.910;2023-02-21T15:42:08;98513.63;;;-13.10;68.73
67517;BME280;54359;59.124;37.910;2023-02-21T15:44:41;98500.53;;;-13.19;67.93
67517;BME280;54359;59.124;37.910;2023-02-21T15:47:12;98515.63;;;-13.16;68.80
67517;BME280;54359;59.124;37.910;2023-02-21T15:52:36;98528.00;;;-13.26;68.30
67517;BME280;54359;59.124;37.910;2023-02-21T15:58:25;98521.50;;;-13.36;69.03
67517;BME280;54359;59.124;37.910;2023-02-21T16:04:46;98545.50;;;-13.45;68.42
67517;BME280;54359;59.124;37.910;2023-02-21T16:07:18;98540.78;;;-13.52;68.53
67517;BME280;54359;59.124;37.910;2023-02-21T16:09:55;98539.94;;;-13.53;67.93
67517;BME280;54359;59.124;37.910;2023-02-21T16:17:54;98550.94;;;-13.60;69.23
67517;BME280;54359;59.124;37.910;2023-02-21T16:20:27;98559.56;;;-13.65;69.30
67517;BME280;54359;59.124;37.910;2023-02-21T16:23:22;98558.34;;;-13.70;68.56
67517;BME280;54359;59.124;37.910;2023-02-21T16:26:00;98555.94;;;-13.79;68.33